Point Mugu Naval Air Station (Naval Base Ventura Co)
KNTD : now visible

Airfield :











YOU CAN JOIN US ON...

 
LOGIN :

Register | Disclaimer

   EN    FR    IT 

 









Legend :    VFR   Marginal VFR   IFR   Intensive IFR   Very Intensive IFR
Visi :
Ceiling :
>= 8 km
>= 3000ft
5 to 8 km
1000 to 3000 ft
1500m to 5 km
500 to 1000 ft
800 to 1500m
200 to 500 ft
< 800m
< 200 ft
Symbols :   Thunderstorms  Fog  Heavy snow  Heavy precipitations  Wind > 20 kt






- Airport Elevation : 13 ft


KNTD - Point Mugu Naval Air Station (Naval Base Ventura Co)

CURRENT METAR :
  • 090152Z 27007KT 10SM CLR 18/13 A2994 RMK AO2 SLP139 T01830128 $

EXPIRED METARs :
  • 090052Z 26008KT 10SM FEW060 19/13 A2995 RMK AO2 SLP142 T01890128 $
  • 082352Z 27008KT 10SM FEW065 20/13 A2996 RMK AO2 SLP145 T02000133 10211 20194 58016 $

TAF TAF KNTD
Valid from the 08 at 23:00 until the 09 at 23:00 UTC


0823/0923 26010KT 9999 FEW012 FEW065 QNH2992INS
BECMG 0900/0902 27009KT 9999 BKN010 BKN060 QNH2993INS
TEMPO 0906/0912 VRB06KT 6000 BR BKN008 BKN030 T12/0912Z T22/0922Z FS30167
KZLA FIR / North America



MET'MAP, your aeronautical weather chart ! - Copyright ORBIFLY December 2007 - Disclaimer

ORBIFLY MET'MAP TEAM :

Programming & Development : Alexandra Zaïnal
Concept & original design : Baudouin d'Aumeries
Assistance for programming : Marc-Olivier Méhu
Technical & hardware support : Manuel Goepfert

Contact : metmap@orbifly.com




SOURCES & CREDITS :

   NOAA       Earth
Advisory